Time;durP1;ratioP1;P1;durP2;ratioP2;P2;SDS_P1;SDS_P2;PMS_P1;PMS_P2;Temp;Humidity;BMP_temperature;BMP_pressure;BME280_temperature;BME280_humidity;BME280_pressure;Samples;Min_cycle;Max_cycle;Signal;HPM_P1;HPM_P2
2022/02/11 00:02:17;;;;;;;7.68;3.45;;;;;;;8.09;57.96;102132.88;5009746;28;123969;-68
2022/02/11 00:07:25;;;;;;;7.63;3.60;;;;;;;8.04;57.88;102134.69;5011112;28;113999;-68
2022/02/11 00:09:53;;;;;;;11.57;4.07;;;;;;;8.01;57.92;102130.34;5010635;28;112854;-68
2022/02/11 00:12:21;;;;;;;9.30;3.95;;;;;;;7.99;57.72;102122.44;5009824;28;123824;-67
2022/02/11 00:15:12;;;;;;;7.45;3.80;;;;;;;7.99;57.88;102127.72;5011016;28;123813;-67
2022/02/11 00:17:39;;;;;;;8.27;3.58;;;;;;;7.96;57.76;102125.09;5009021;28;113976;-68
2022/02/11 00:20:07;;;;;;;11.60;3.95;;;;;;;7.93;57.57;102135.72;5008967;28;113951;-68
2022/02/11 00:22:34;;;;;;;8.82;3.90;;;;;;;7.91;57.71;102132.22;5009024;28;123856;-68
2022/02/11 00:25:02;;;;;;;8.57;3.90;;;;;;;7.88;57.87;102128.75;5010476;28;123457;-68
2022/02/11 00:35:14;;;;;;;6.60;3.75;;;;;;;7.76;57.75;102124.47;5008487;28;124706;-68
2022/02/11 00:37:41;;;;;;;9.15;4.13;;;;;;;7.72;57.89;102122.78;5010263;28;114324;-68
2022/02/11 01:02:29;;;;;;;10.48;3.78;;;;;;;7.41;58.15;102117.88;5008785;28;114088;-67
2022/02/11 01:04:57;;;;;;;7.13;3.35;;;;;;;7.36;57.96;102104.75;5008124;28;124884;-67
2022/02/11 01:07:24;;;;;;;9.32;3.30;;;;;;;7.35;58.29;102107.44;5010773;28;124557;-67
2022/02/11 01:09:51;;;;;;;9.52;3.80;;;;;;;7.34;58.00;102110.94;5010823;28;114185;-67
2022/02/11 01:12:18;;;;;;;10.15;3.42;;;;;;;7.35;58.24;102117.97;5009810;28;113392;-67
2022/02/11 01:14:52;;;;;;;8.23;3.30;;;;;;;7.34;58.12;102116.19;5008504;28;124032;-68
2022/02/11 01:17:38;;;;;;;5.63;3.13;;;;;;;7.33;58.20;102119.75;5007639;28;124626;-67
2022/02/11 01:20:18;;;;;;;7.97;3.53;;;;;;;7.31;58.16;102116.22;5010237;28;114804;-67
2022/02/11 01:35:53;;;;;;;8.70;3.38;;;;;;;7.22;58.07;102111.94;5007697;28;123817;-67
2022/02/11 01:38:45;;;;;;;7.50;3.45;;;;;;;7.20;58.35;102101.41;5009821;28;124635;-67
2022/02/11 01:44:09;;;;;;;8.60;3.22;;;;;;;7.19;58.12;102102.28;5010665;28;115507;-67
2022/02/11 01:51:56;;;;;;;9.68;3.20;;;;;;;7.17;58.52;102104.06;5007521;28;115021;-67
2022/02/11 01:57:02;;;;;;;7.82;3.47;;;;;;;7.18;58.66;102105.84;5009140;28;124528;-67
2022/02/11 02:13:49;;;;;;;5.93;3.22;;;;;;;7.24;58.24;102114.56;5013671;28;114072;-67
2022/02/11 02:24:53;;;;;;;7.15;3.03;;;;;;;7.20;58.52;102104.06;5013289;28;114580;-67
2022/02/11 02:58:15;;;;;;;7.80;3.30;;;;;;;7.49;58.70;102116.03;5010891;28;113322;-67
2022/02/11 03:31:41;;;;;;;8.75;2.40;;;;;;;7.62;58.90;102103.56;5007624;28;114056;-67
2022/02/11 04:23:52;;;;;;;9.05;1.92;;;;;;;7.72;59.63;102159.69;5011150;28;124399;-67
2022/02/11 04:27:03;;;;;;;9.43;1.80;;;;;;;7.76;59.43;102161.41;5011457;28;114958;-67
2022/02/11 05:00:31;;;;;;;;;;;;;;;8.32;59.61;102225.78;5010437;28;114292;-67
2022/02/11 05:02:59;;;;;;;9.85;2.10;;;;;;;8.39;59.56;102242.41;5010557;28;114263;-66
2022/02/11 05:05:26;;;;;;;8.38;1.25;;;;;;;8.43;59.32;102240.66;5008492;28;124356;-66
2022/02/11 05:07:53;;;;;;;9.30;2.13;;;;;;;8.47;59.44;102239.69;5010778;28;123804;-66
2022/02/11 05:10:21;;;;;;;10.57;1.48;;;;;;;8.50;59.13;102252.88;5007526;28;114568;-66
2022/02/11 05:12:48;;;;;;;8.60;1.45;;;;;;;8.54;59.37;102246.66;5009865;28;114250;-67
2022/02/11 05:15:15;;;;;;;7.85;1.40;;;;;;;8.58;59.25;102256.28;5007877;28;124347;-67
2022/02/11 05:17:43;;;;;;;12.57;1.67;;;;;;;8.61;59.32;102264.16;5007694;28;124412;-66
2022/02/11 05:20:10;;;;;;;6.82;1.50;;;;;;;8.63;59.11;102256.22;5006910;28;114912;-66
2022/02/11 05:22:38;;;;;;;7.75;1.50;;;;;;;8.63;58.99;102257.09;5009886;28;113611;-66
2022/02/11 05:25:08;;;;;;;11.27;1.90;;;;;;;8.65;58.73;102271.16;5007733;28;124369;-66
2022/02/11 05:27:37;;;;;;;10.98;1.55;;;;;;;8.65;58.75;102275.56;5007780;28;123800;-67
2022/02/11 05:30:05;;;;;;;10.07;1.90;;;;;;;8.63;58.55;102288.78;5007282;28;114882;-67
2022/02/11 05:32:32;;;;;;;8.15;1.80;;;;;;;8.62;58.48;102287.03;5008775;28;115538;-67
2022/02/11 05:34:59;;;;;;;11.40;1.48;;;;;;;8.62;58.88;102292.31;5007535;28;125231;-66
2022/02/11 05:37:26;;;;;;;9.10;1.98;;;;;;;8.60;58.25;102288.81;5009641;28;123554;-66
2022/02/11 05:39:53;;;;;;;11.65;1.90;;;;;;;8.59;58.38;102302.94;5007223;28;114256;-67
2022/02/11 05:42:20;;;;;;;7.20;1.33;;;;;;;8.58;58.34;102307.31;5010190;28;114043;-66
2022/02/11 05:44:48;;;;;;;12.52;1.80;;;;;;;8.57;58.58;102310.00;5008242;28;122990;-67
2022/02/11 05:47:15;;;;;;;12.07;1.63;;;;;;;8.57;58.49;102315.28;5008119;28;124221;-66
2022/02/11 05:49:42;;;;;;;8.90;1.42;;;;;;;8.58;58.57;102314.38;5008593;28;114551;-67
2022/02/11 05:52:09;;;;;;;8.38;1.52;;;;;;;8.58;58.17;102317.00;5008079;28;113900;-66
2022/02/11 05:54:36;;;;;;;10.80;1.75;;;;;;;8.56;58.14;102327.59;5009383;28;123019;-66
2022/02/11 05:57:04;;;;;;;9.27;1.40;;;;;;;8.57;58.34;102331.13;5007224;28;123737;-66
2022/02/11 05:59:31;;;;;;;8.63;1.65;;;;;;;8.56;58.36;102332.00;5007791;28;114312;-66
2022/02/11 06:01:58;;;;;;;11.80;1.63;;;;;;;8.56;58.43;102329.38;5008179;28;114604;-67
2022/02/11 06:04:25;;;;;;;13.18;1.67;;;;;;;8.55;58.29;102344.34;5007349;28;124617;-66
2022/02/11 06:06:53;;;;;;;9.77;1.80;;;;;;;8.55;58.00;102356.66;5008890;28;124124;-66
2022/02/11 06:09:20;;;;;;;9.98;1.17;;;;;;;8.54;58.30;102357.56;5009365;28;115153;-66
2022/02/11 06:11:47;;;;;;;10.05;1.80;;;;;;;8.52;58.07;102365.50;5009110;28;114866;-66
2022/02/11 06:14:16;;;;;;;7.68;1.23;;;;;;;8.50;57.92;102367.28;5005895;28;123981;-67
2022/02/11 06:16:44;;;;;;;7.70;1.33;;;;;;;8.50;57.82;102377.84;5007050;28;123761;-67
2022/02/11 06:19:11;;;;;;;9.77;1.90;;;;;;;8.50;57.83;102371.69;5007338;28;114116;-66
2022/02/11 06:21:38;;;;;;;11.00;1.75;;;;;;;8.50;58.28;102384.91;5008870;28;114119;-67
2022/02/11 06:24:06;;;;;;;8.68;1.30;;;;;;;8.50;58.12;102387.53;5008617;28;122879;-66
2022/02/11 06:26:33;;;;;;;3.63;1.02;;;;;;;8.49;58.09;102396.34;5009093;28;123358;-67
2022/02/11 06:29:00;;;;;;;6.75;1.20;;;;;;;8.47;57.84;102403.41;5007282;28;114708;-67
2022/02/11 06:31:27;;;;;;;5.38;1.20;;;;;;;8.47;58.05;102408.69;5006551;28;114003;-67
2022/02/11 06:33:54;;;;;;;9.43;1.20;;;;;;;8.46;58.09;102428.94;5009608;28;123589;-66
2022/02/11 06:36:22;;;;;;;10.77;1.48;;;;;;;8.47;58.09;102440.38;5009914;28;124035;-66
2022/02/11 06:38:49;;;;;;;9.20;1.38;;;;;;;8.45;57.87;102452.72;5009588;28;114221;-67
2022/02/11 06:41:16;;;;;;;7.57;1.40;;;;;;;8.44;57.83;102456.22;5006742;28;113690;-66
2022/02/11 06:43:43;;;;;;;4.30;0.98;;;;;;;8.38;57.84;102452.75;5008388;28;124161;-67
2022/02/11 06:46:10;;;;;;;6.43;1.17;;;;;;;8.32;57.79;102458.06;5011828;28;123956;-67
2022/02/11 06:48:37;;;;;;;5.38;1.00;;;;;;;8.27;57.79;102454.63;5010072;28;114229;-66
2022/02/11 06:51:05;;;;;;;7.95;1.20;;;;;;;8.20;58.05;102468.75;5008247;28;113851;-67
2022/02/11 06:53:33;;;;;;;3.03;1.10;;;;;;;8.12;57.65;102471.47;5010471;28;123784;-67
2022/02/11 06:56:00;;;;;;;4.45;0.80;;;;;;;8.05;57.68;102479.44;5009580;28;124678;-67
2022/02/11 06:58:27;;;;;;;6.03;1.00;;;;;;;7.99;57.91;102486.53;5007619;28;115277;-68
2022/02/11 07:00:55;;;;;;;6.55;1.30;;;;;;;7.94;57.81;102498.88;5009864;28;114765;-67
2022/02/11 07:03:24;;;;;;;6.50;1.15;;;;;;;7.88;57.91;102504.19;5012384;28;124584;-68
2022/02/11 07:05:54;;;;;;;6.55;1.10;;;;;;;7.83;58.05;102505.09;5011750;28;122968;-68
2022/02/11 07:08:21;;;;;;;5.75;1.20;;;;;;;7.80;58.09;102511.28;5010592;28;114103;-68
2022/02/11 07:10:50;;;;;;;6.47;1.17;;;;;;;7.75;58.21;102523.63;5010022;28;113898;-68
2022/02/11 07:13:17;;;;;;;7.28;1.55;;;;;;;7.73;58.11;102530.66;5012069;28;123895;-68
2022/02/11 07:15:45;;;;;;;4.43;1.02;;;;;;;7.70;58.11;102535.94;5012722;28;123911;-69
2022/02/11 07:18:12;;;;;;;7.80;1.08;;;;;;;7.68;58.04;102541.22;5013000;28;114386;-68
2022/02/11 07:20:41;;;;;;;4.93;1.23;;;;;;;7.67;58.53;102547.41;5011397;28;112712;-68
2022/02/11 07:23:08;;;;;;;3.08;0.75;;;;;;;7.66;58.33;102550.91;5011265;28;123967;-65
2022/02/11 07:25:38;;;;;;;5.88;1.42;;;;;;;7.66;58.31;102565.88;5010122;28;124720;-65
2022/02/11 07:28:05;;;;;;;6.72;1.27;;;;;;;7.65;58.25;102564.09;5012204;28;113083;-65
2022/02/11 07:30:33;;;;;;;5.32;1.05;;;;;;;7.65;58.08;102564.09;5011671;28;113134;-65
2022/02/11 07:33:00;;;;;;;10.13;1.25;;;;;;;7.64;58.09;102572.91;5012199;28;124285;-66
2022/02/11 07:35:29;;;;;;;8.55;1.42;;;;;;;7.63;58.34;102581.69;5010018;28;124303;-65
2022/02/11 07:37:57;;;;;;;6.72;1.10;;;;;;;7.63;58.15;102586.97;5012310;28;113320;-65
2022/02/11 07:40:25;;;;;;;6.53;1.48;;;;;;;7.65;58.37;102587.84;5011064;28;113253;-65
2022/02/11 07:42:52;;;;;;;4.60;1.20;;;;;;;7.65;58.38;102595.75;5011134;28;125324;-65
2022/02/11 07:45:22;;;;;;;8.38;1.20;;;;;;;7.65;58.46;102603.66;5011112;28;122947;-65
2022/02/11 07:47:51;;;;;;;11.25;1.27;;;;;;;7.66;58.46;102618.59;5012332;28;114945;-65
2022/02/11 07:50:19;;;;;;;6.38;1.20;;;;;;;7.68;58.50;102619.47;5010976;28;113986;-66
2022/02/11 07:52:46;;;;;;;13.65;1.73;;;;;;;7.69;58.35;102621.25;5012291;28;124750;-65
2022/02/11 07:55:14;;;;;;;5.10;1.00;;;;;;;7.71;58.47;102633.53;5011073;28;122868;-65
2022/02/11 07:57:41;;;;;;;8.10;1.42;;;;;;;7.75;58.51;102634.41;5012322;28;114257;-65
2022/02/11 08:00:10;;;;;;;8.32;1.33;;;;;;;7.81;58.34;102644.91;5008881;28;114026;-65
2022/02/11 08:02:38;;;;;;;8.68;1.75;;;;;;;7.87;58.61;102647.50;5010303;28;124873;-65
2022/02/11 08:05:07;;;;;;;7.95;1.55;;;;;;;7.93;58.55;102650.16;5011883;28;122915;-65
2022/02/11 08:07:34;;;;;;;10.55;1.50;;;;;;;7.98;58.26;102656.25;5011922;28;114042;-68
2022/02/11 08:10:04;;;;;;;4.75;1.10;;;;;;;8.04;58.56;102667.66;5008988;28;113855;-68
2022/02/11 08:12:34;;;;;;;6.05;1.10;;;;;;;8.08;58.63;102664.13;5009539;28;124106;-68
2022/02/11 08:15:03;;;;;;;5.90;0.90;;;;;;;8.10;58.33;102667.63;5009717;28;123782;-68
2022/02/11 08:17:31;;;;;;;8.13;1.20;;;;;;;8.15;58.14;102679.03;5010294;28;114506;-68
2022/02/11 08:19:58;;;;;;;5.57;1.40;;;;;;;8.18;58.16;102705.44;5010271;28;114043;-68
2022/02/11 08:22:25;;;;;;;6.57;1.23;;;;;;;8.19;58.05;102694.88;5009801;28;123855;-68
2022/02/11 08:24:52;;;;;;;5.18;1.08;;;;;;;8.20;58.11;102701.03;5009088;28;123709;-68
2022/02/11 08:27:19;;;;;;;7.68;1.20;;;;;;;8.23;57.79;102711.59;5011135;28;113371;-68
2022/02/11 08:29:47;;;;;;;9.63;1.45;;;;;;;8.25;58.11;102714.19;5009192;28;113994;-68
2022/02/11 08:32:14;;;;;;;8.75;0.88;;;;;;;8.26;57.85;102716.81;5010049;28;124064;-68
2022/02/11 08:34:41;;;;;;;6.68;1.20;;;;;;;8.28;57.75;102730.03;5010824;28;124093;-68
2022/02/11 08:37:08;;;;;;;7.00;1.25;;;;;;;8.30;57.81;102739.66;5010646;28;115601;-68
2022/02/11 08:39:38;;;;;;;10.82;1.30;;;;;;;8.31;57.50;102736.16;5008826;28;115130;-68
2022/02/11 08:42:06;;;;;;;10.52;1.33;;;;;;;8.35;57.76;102753.75;5009717;28;123078;-68
2022/02/11 08:44:34;;;;;;;11.05;1.30;;;;;;;8.38;57.41;102747.56;5009206;28;123754;-68
2022/02/11 08:47:03;;;;;;;11.13;1.48;;;;;;;8.42;57.70;102759.00;5011421;28;113084;-68
2022/02/11 08:49:31;;;;;;;9.35;1.50;;;;;;;8.46;57.57;102771.34;5010937;28;114402;-68
2022/02/11 08:52:00;;;;;;;7.93;1.23;;;;;;;8.48;57.61;102785.41;5009679;28;123820;-68
2022/02/11 08:54:28;;;;;;;6.15;1.23;;;;;;;8.51;57.32;102790.66;5011968;28;123829;-68
2022/02/11 08:56:55;;;;;;;7.35;1.20;;;;;;;8.55;57.20;102792.38;5008732;28;115111;-68
2022/02/11 08:59:24;;;;;;;10.10;1.63;;;;;;;8.58;57.35;102797.66;5010113;28;113997;-68
2022/02/11 09:01:52;;;;;;;9.02;1.60;;;;;;;8.61;56.98;102792.38;5009119;28;123197;-68
2022/02/11 09:04:19;;;;;;;5.85;1.10;;;;;;;8.63;57.25;102793.25;5008585;28;123710;-68
2022/02/11 09:06:46;;;;;;;7.03;1.38;;;;;;;8.64;56.70;102802.91;5010361;28;114485;-68
2022/02/11 09:09:15;;;;;;;6.35;1.25;;;;;;;8.65;57.05;102809.09;5008738;28;113870;-68
2022/02/11 09:11:43;;;;;;;7.53;1.23;;;;;;;8.66;56.79;102809.06;5009353;28;122982;-68
2022/02/11 09:14:10;;;;;;;7.85;1.25;;;;;;;8.68;56.95;102815.25;5009854;28;123711;-68
2022/02/11 09:16:38;;;;;;;7.28;1.30;;;;;;;8.68;56.97;102804.69;5008773;28;114634;-68
2022/02/11 09:19:09;;;;;;;9.48;1.38;;;;;;;8.67;56.75;102813.47;5011783;28;113828;-68
2022/02/11 09:21:37;;;;;;;9.45;1.85;;;;;;;8.66;56.66;102816.97;5010512;28;123812;-67
2022/02/11 09:24:04;;;;;;;9.93;1.42;;;;;;;8.66;56.85;102827.53;5011256;28;125707;-67
2022/02/11 09:26:33;;;;;;;7.13;1.13;;;;;;;8.68;56.84;102831.09;5009389;28;115646;-67
2022/02/11 09:29:04;;;;;;;6.68;1.40;;;;;;;8.70;56.81;102838.97;4993956;28;113695;-68
2022/02/11 09:31:32;;;;;;;10.38;1.63;;;;;;;8.70;56.97;102839.88;5009603;28;122986;-67
2022/02/11 09:34:06;;;;;;;8.75;1.40;;;;;;;8.74;56.90;102852.19;5011146;28;124081;-67
2022/02/11 09:36:34;;;;;;;7.90;1.70;;;;;;;8.77;56.87;102846.88;5008597;28;114121;-68
2022/02/11 09:39:04;;;;;;;8.20;1.33;;;;;;;8.82;56.99;102853.91;5009897;28;113738;-67
2022/02/11 09:41:31;;;;;;;10.48;1.35;;;;;;;8.86;56.78;102847.72;5009296;28;123440;-67
2022/02/11 09:44:01;;;;;;;12.88;1.88;;;;;;;8.90;56.64;102857.38;5011220;28;123739;-67
2022/02/11 09:46:30;;;;;;;10.65;1.40;;;;;;;8.95;56.94;102861.75;5008251;28;114162;-67
2022/02/11 09:48:57;;;;;;;14.70;1.50;;;;;;;9.02;56.73;102869.63;5008929;28;114845;-67
2022/02/11 09:51:24;;;;;;;7.70;1.33;;;;;;;9.06;56.97;102869.63;5007789;28;124622;-67
2022/02/11 09:53:51;;;;;;;7.63;2.03;;;;;;;9.12;56.95;102877.50;5010615;28;123853;-67
2022/02/11 09:56:19;;;;;;;11.60;1.83;;;;;;;9.20;56.68;102887.16;5010022;28;113534;-67
2022/02/11 09:59:05;;;;;;;8.48;1.60;;;;;;;9.28;57.02;102885.34;5011131;28;113653;-67
2022/02/11 10:01:33;;;;;;;8.75;1.60;;;;;;;9.37;56.60;102890.56;5007834;28;124113;-67
2022/02/11 10:04:16;;;;;;;8.65;1.52;;;;;;;9.47;56.63;102889.59;5010616;28;124003;-67
2022/02/11 10:06:48;;;;;;;9.85;1.60;;;;;;;9.54;56.74;102893.97;5010086;28;114331;-67
2022/02/11 10:09:22;;;;;;;11.13;1.70;;;;;;;9.61;56.48;102901.88;5011225;28;114067;-67
2022/02/11 10:11:51;;;;;;;7.53;1.45;;;;;;;9.68;56.16;102900.91;5006956;28;124685;-68
2022/02/11 10:14:34;;;;;;;9.95;1.58;;;;;;;9.69;55.99;102902.69;5008749;28;124116;-67
2022/02/11 10:17:10;;;;;;;10.32;2.15;;;;;;;9.72;55.64;102907.94;5007591;28;114962;-67
2022/02/11 10:19:37;;;;;;;9.25;1.83;;;;;;;9.72;55.77;102913.25;5013350;28;115034;-67
2022/02/11 10:22:15;;;;;;;10.90;1.60;;;;;;;9.74;55.35;102917.63;5011117;28;124372;-67
2022/02/11 10:24:45;;;;;;;9.05;1.70;;;;;;;9.76;55.25;102930.84;5011104;28;124036;-67
2022/02/11 10:27:22;;;;;;;10.95;1.40;;;;;;;9.77;54.93;102937.88;5011517;28;114401;-67
2022/02/11 10:29:52;;;;;;;6.18;1.73;;;;;;;9.76;55.23;102936.13;5013181;28;114450;-67
2022/02/11 10:32:46;;;;;;;10.05;2.45;;;;;;;9.74;54.94;102948.50;5011271;28;124832;-67
2022/02/11 10:35:16;;;;;;;12.13;1.45;;;;;;;9.74;55.05;102945.88;5012459;28;123821;-67
2022/02/11 10:38:13;;;;;;;10.70;1.60;;;;;;;9.71;54.64;102948.53;5011204;28;114612;-67
2022/02/11 10:40:41;;;;;;;10.10;1.40;;;;;;;9.72;54.47;102956.44;5012949;28;114603;-67
2022/02/11 10:43:26;;;;;;;12.73;1.80;;;;;;;9.75;54.98;102967.00;5011813;28;124638;-67
2022/02/11 10:45:59;;;;;;;11.10;1.55;;;;;;;9.83;54.57;102964.31;5010676;28;123866;-67
2022/02/11 10:48:26;;;;;;;6.40;1.20;;;;;;;9.90;54.75;102959.84;5013109;28;114331;-64
2022/02/11 10:50:58;;;;;;;7.82;1.83;;;;;;;9.97;54.43;102973.91;5012733;28;114268;-64
2022/02/11 10:53:28;;;;;;;10.05;1.65;;;;;;;10.03;54.15;102973.84;5011876;28;122996;-64
2022/02/11 10:55:58;;;;;;;8.70;1.38;;;;;;;10.11;54.30;102980.84;5011682;28;123902;-64
2022/02/11 10:58:28;;;;;;;11.65;1.63;;;;;;;10.16;53.84;102988.75;5012477;28;114056;-64
2022/02/11 11:01:00;;;;;;;7.72;1.17;;;;;;;10.21;53.72;102992.25;5012233;28;113017;-64
2022/02/11 11:03:31;;;;;;;11.70;1.50;;;;;;;10.26;53.47;102985.09;5011357;28;124110;-65
2022/02/11 11:06:03;;;;;;;6.72;1.40;;;;;;;10.32;53.32;102993.06;5010559;28;124278;-67
2022/02/11 11:08:35;;;;;;;7.00;1.10;;;;;;;10.41;53.10;102999.13;5010277;28;115653;-65
2022/02/11 11:11:09;;;;;;;7.45;1.23;;;;;;;10.48;53.18;102992.91;5010025;28;114926;-65
2022/02/11 11:13:42;;;;;;;10.70;1.65;;;;;;;10.52;52.55;103002.56;5012627;28;124832;-66
2022/02/11 11:16:10;;;;;;;7.47;1.33;;;;;;;10.53;52.69;103004.34;5012730;28;124795;-66
2022/02/11 11:18:38;;;;;;;9.75;1.50;;;;;;;10.53;52.33;103004.34;5010463;28;114184;-66
2022/02/11 11:21:10;;;;;;;8.45;1.27;;;;;;;10.52;52.00;102991.97;5011430;28;113273;-66
2022/02/11 11:23:52;;;;;;;7.13;1.17;;;;;;;10.47;51.62;103009.66;5011308;28;123601;-66
2022/02/11 11:26:20;;;;;;;8.82;1.42;;;;;;;10.43;51.76;103024.72;5013258;28;123830;-66
2022/02/11 11:28:50;;;;;;;6.05;1.25;;;;;;;10.38;51.47;103020.34;5008916;28;114034;-66
2022/02/11 11:31:27;;;;;;;7.15;1.38;;;;;;;10.32;51.26;103011.59;5009853;28;114341;-66
2022/02/11 11:34:16;;;;;;;7.80;1.30;;;;;;;10.26;51.12;103011.59;5012225;28;123936;-67
2022/02/11 11:36:49;;;;;;;7.07;1.27;;;;;;;10.21;51.04;103024.00;5011941;28;123902;-66
2022/02/11 11:39:18;;;;;;;8.93;1.10;;;;;;;10.17;51.32;103030.22;5010462;28;114726;-66
2022/02/11 11:42:17;;;;;;;8.85;2.03;;;;;;;10.13;51.08;103028.47;5009012;28;114437;-67
2022/02/11 11:44:53;;;;;;;7.57;1.10;;;;;;;10.11;50.87;103032.91;5011666;28;123497;-67
2022/02/11 11:47:27;;;;;;;8.98;1.17;;;;;;;10.13;51.10;103033.78;5012647;28;124047;-66
2022/02/11 11:49:56;;;;;;;11.02;1.55;;;;;;;10.17;51.35;103043.47;5009436;28;114699;-67
2022/02/11 11:52:38;;;;;;;4.85;1.23;;;;;;;10.22;50.83;103041.66;5011586;28;113806;-66
2022/02/11 11:55:23;;;;;;;7.85;1.10;;;;;;;10.28;51.12;103046.91;5010600;28;124445;-66
2022/02/11 11:57:52;;;;;;;7.20;1.00;;;;;;;10.35;51.15;103045.09;5012407;28;124624;-66
2022/02/11 12:00:36;;;;;;;5.93;1.10;;;;;;;10.42;50.70;103043.28;5010811;28;114021;-66
2022/02/11 12:03:09;;;;;;;8.32;1.20;;;;;;;10.50;51.00;103044.09;5011215;28;114772;-66
2022/02/11 12:05:45;;;;;;;8.82;1.40;;;;;;;10.57;50.66;103053.75;5011907;28;123822;-66
2022/02/11 12:08:15;;;;;;;7.32;1.08;;;;;;;10.63;50.46;103043.09;5009878;28;123918;-66
2022/02/11 12:10:46;;;;;;;6.95;1.30;;;;;;;10.68;50.37;103046.56;5012108;28;114324;-66
2022/02/11 12:13:16;;;;;;;9.85;1.23;;;;;;;10.77;50.03;103050.00;5011246;28;114564;-66
2022/02/11 12:15:44;;;;;;;8.38;1.27;;;;;;;10.81;49.76;103054.38;5011218;28;124658;-66
2022/02/11 12:18:11;;;;;;;6.55;1.27;;;;;;;10.84;49.65;103051.72;5009572;28;123708;-66
2022/02/11 12:20:39;;;;;;;8.48;1.30;;;;;;;10.83;49.46;103048.19;5008612;28;114505;-66
2022/02/11 12:28:38;;;;;;;3.58;0.60;;;;;;;10.96;49.72;103048.91;5011662;28;124853;-66
2022/02/11 12:31:07;;;;;;;3.92;1.02;;;;;;;11.00;49.58;103058.63;5008451;28;114345;-66
2022/02/11 12:33:34;;;;;;;5.45;1.10;;;;;;;11.02;49.29;103056.81;5011518;28;114400;-66
2022/02/11 12:36:09;;;;;;;7.47;1.00;;;;;;;11.04;48.68;103067.41;5010045;28;123941;-66
2022/02/11 12:38:38;;;;;;;4.05;1.20;;;;;;;11.03;48.60;103074.47;5010759;28;124390;-66
2022/02/11 12:41:05;;;;;;;4.97;1.38;;;;;;;11.01;48.30;103070.97;5008540;28;114486;-66
2022/02/11 12:43:32;;;;;;;5.53;1.02;;;;;;;10.98;48.23;103076.31;5011655;28;114125;-66
2022/02/11 12:46:02;;;;;;;6.30;0.80;;;;;;;10.94;48.08;103085.16;5010460;28;122903;-66
2022/02/11 12:48:33;;;;;;;5.55;1.17;;;;;;;10.92;47.73;103081.66;5008706;28;124272;-66
2022/02/11 12:51:01;;;;;;;6.72;1.08;;;;;;;10.89;47.67;103092.31;5009235;28;114301;-66
2022/02/11 12:53:29;;;;;;;5.28;1.02;;;;;;;10.83;47.65;103082.66;5009677;28;115211;-66
2022/02/11 12:55:58;;;;;;;4.40;0.95;;;;;;;10.80;47.52;103092.41;5008572;28;124091;-66
2022/02/11 12:58:25;;;;;;;6.72;0.98;;;;;;;10.74;47.49;103087.13;5008648;28;124536;-66
2022/02/11 13:00:55;;;;;;;3.72;0.82;;;;;;;10.69;47.44;103082.75;5008046;28;114342;-66
2022/02/11 13:03:22;;;;;;;6.82;0.90;;;;;;;10.66;47.45;103080.16;5010957;28;113829;-66
2022/02/11 13:05:52;;;;;;;6.10;0.90;;;;;;;10.64;47.22;103081.97;5007200;28;124879;-66
2022/02/11 13:08:20;;;;;;;4.05;0.80;;;;;;;10.66;47.21;103090.78;4994261;28;123005;-66
2022/02/11 13:10:56;;;;;;;7.28;0.98;;;;;;;10.66;46.94;103090.78;5007928;28;114294;-66
2022/02/11 13:13:23;;;;;;;;;;;;;;;10.71;48.27;103093.34;5010399;28;113470;-66
2022/02/11 13:15:56;;;;;;;4.47;1.10;;;;;;;10.80;47.37;103095.06;5010591;28;98295;-66
2022/02/11 13:18:26;;;;;;;3.78;0.80;;;;;;;10.86;47.54;103094.97;5009292;28;123816;-66
2022/02/11 13:20:58;;;;;;;4.28;0.80;;;;;;;10.96;47.28;103098.41;5010491;28;114295;-66
2022/02/11 13:23:26;;;;;;;3.83;0.77;;;;;;;11.06;47.33;103100.97;5010502;28;114054;-66
2022/02/11 13:25:56;;;;;;;4.47;0.70;;;;;;;11.14;46.85;103105.31;5009518;28;122824;-66
2022/02/11 13:28:25;;;;;;;3.83;1.27;;;;;;;11.20;46.69;103097.28;5008199;28;123984;-66
2022/02/11 13:30:56;;;;;;;3.88;1.00;;;;;;;11.25;46.61;103095.47;5007843;28;114087;-66
2022/02/11 13:33:24;;;;;;;3.75;0.85;;;;;;;11.32;46.71;103099.81;5010836;28;113980;-66
2022/02/11 13:35:54;;;;;;;5.63;1.10;;;;;;;11.40;46.44;103100.59;5006732;28;124067;-66
2022/02/11 13:38:32;;;;;;;4.78;0.80;;;;;;;11.46;46.24;103111.09;5008078;28;124040;-66
2022/02/11 13:41:06;;;;;;;3.70;0.88;;;;;;;11.47;45.92;103107.56;5008923;28;115452;-66
2022/02/11 13:43:47;;;;;;;3.00;1.08;;;;;;;11.44;45.65;103123.53;5010579;28;114716;-66
2022/02/11 13:46:54;;;;;;;4.35;1.00;;;;;;;11.39;45.76;103125.34;5007913;28;123937;-66
2022/02/11 13:49:22;;;;;;;6.70;1.17;;;;;;;11.32;45.79;103131.63;5009420;28;123932;-66
2022/02/11 13:55:03;;;;;;;8.55;1.42;;;;;;;11.16;46.12;103138.00;5012005;28;114609;-68
2022/02/11 13:57:34;;;;;;;6.88;1.10;;;;;;;11.10;46.38;103142.47;5012951;28;124330;-67
2022/02/11 14:00:38;;;;;;;7.03;1.33;;;;;;;11.01;45.78;103145.19;5013324;28;124756;-66
2022/02/11 14:03:05;;;;;;;6.15;1.00;;;;;;;10.91;46.15;103138.25;5013068;28;114631;-67
2022/02/11 14:05:43;;;;;;;8.20;1.30;;;;;;;10.81;45.92;103147.16;5012671;28;114051;-67
2022/02/11 14:08:12;;;;;;;6.72;1.17;;;;;;;10.70;46.38;103140.19;5010724;28;124011;-67
2022/02/11 14:10:40;;;;;;;5.10;1.35;;;;;;;10.63;46.27;103143.78;5010413;28;123894;-67
2022/02/11 14:13:09;;;;;;;6.05;1.10;;;;;;;10.58;46.43;103145.59;5014199;28;115084;-67
2022/02/11 14:15:37;;;;;;;4.35;0.95;;;;;;;10.54;46.29;103154.44;5011461;28;114258;-66
2022/02/11 14:18:04;;;;;;;9.48;1.38;;;;;;;10.48;46.14;103157.16;5012541;28;124094;-66
2022/02/11 14:20:35;;;;;;;10.07;1.40;;;;;;;10.45;46.55;103159.81;5011989;28;124465;-67
2022/02/11 14:23:17;;;;;;;5.10;1.38;;;;;;;10.45;46.55;103154.53;5012874;28;114529;-68
2022/02/11 14:25:46;;;;;;;5.57;1.10;;;;;;;10.49;46.50;103165.09;5014281;28;114047;-65
2022/02/11 14:28:15;;;;;;;7.03;1.20;;;;;;;10.56;46.63;103155.31;5010895;28;125025;-65
2022/02/11 14:30:44;;;;;;;3.80;1.00;;;;;;;10.61;46.45;103158.81;5010261;28;124346;-65
2022/02/11 14:33:12;;;;;;;5.05;0.73;;;;;;;10.66;46.45;103154.38;5012063;28;115061;-65
2022/02/11 14:35:39;;;;;;;4.95;0.90;;;;;;;10.76;46.18;103159.59;5013483;28;115814;-65
2022/02/11 14:38:07;;;;;;;4.15;0.85;;;;;;;10.82;46.11;103159.53;5013545;28;123953;-65
2022/02/11 14:40:35;;;;;;;5.60;1.13;;;;;;;10.91;45.94;103164.75;5011995;28;123863;-65
2022/02/11 14:43:03;;;;;;;7.10;1.15;;;;;;;11.00;46.12;103162.03;5012323;28;114962;-65
2022/02/11 14:45:31;;;;;;;10.07;1.58;;;;;;;11.12;45.88;103162.81;5010782;28;114281;-65
2022/02/11 14:47:58;;;;;;;5.82;1.10;;;;;;;11.19;46.00;103175.09;5010619;28;124086;-65
2022/02/11 14:50:26;;;;;;;6.10;1.27;;;;;;;11.29;45.75;103176.75;5012657;28;123883;-65
2022/02/11 14:52:53;;;;;;;3.92;0.90;;;;;;;11.37;45.69;103169.59;5012201;28;115221;-65
2022/02/11 14:55:20;;;;;;;5.32;0.85;;;;;;;11.45;45.45;103178.38;5011600;28;114130;-65
2022/02/11 14:57:48;;;;;;;4.93;0.95;;;;;;;11.53;45.58;103174.72;5009905;28;124128;-65
2022/02/11 15:00:15;;;;;;;4.15;1.10;;;;;;;11.60;45.16;103184.38;5009773;28;124461;-65
2022/02/11 15:02:42;;;;;;;6.70;1.20;;;;;;;11.62;45.06;103185.22;5011840;28;114531;-65
2022/02/11 15:05:09;;;;;;;4.82;1.10;;;;;;;11.58;44.62;103189.69;5011032;28;113982;-65
2022/02/11 15:07:38;;;;;;;4.60;0.73;;;;;;;11.56;44.49;103185.31;5012615;28;123925;-65
2022/02/11 15:10:06;;;;;;;4.22;0.90;;;;;;;11.54;44.29;103187.09;5010780;28;124097;-65
2022/02/11 15:12:34;;;;;;;7.50;0.93;;;;;;;11.53;43.71;103190.63;5011520;28;115244;-66
2022/02/11 15:15:02;;;;;;;5.05;0.75;;;;;;;11.49;44.14;103185.38;5012904;28;114815;-66
2022/02/11 15:17:29;;;;;;;4.30;0.88;;;;;;;11.45;43.99;103188.97;5012706;28;124063;-66
2022/02/11 15:19:58;;;;;;;4.35;0.90;;;;;;;11.41;43.98;103192.53;5009539;28;124018;-66
2022/02/11 15:22:25;;;;;;;4.57;1.23;;;;;;;11.36;43.98;103194.38;5010590;28;115448;-66
2022/02/11 15:24:58;;;;;;;7.07;1.08;;;;;;;11.31;43.88;103196.19;5011613;28;114859;-66
2022/02/11 15:27:25;;;;;;;7.07;0.90;;;;;;;11.23;43.83;103203.38;5012126;28;124868;-66